Time;durP1;ratioP1;P1;durP2;ratioP2;P2;SDS_P1;SDS_P2;PMS_P1;PMS_P2;Temp;Humidity;BMP_temperature;BMP_pressure;BME280_temperature;BME280_humidity;BME280_pressure;Samples;Min_cycle;Max_cycle;Signal;HPM_P1;HPM_P2
2022/05/06 00:00:21;;;;;;;18.60;14.43;;;;;;;14.45;66.30;99310.64;2249364;79;20942;-80
2022/05/06 00:03:21;;;;;;;14.03;12.55;;;;;;;13.96;68.25;99307.77;2249513;79;21304;-82
2022/05/06 00:06:23;;;;;;;15.30;13.62;;;;;;;13.58;68.93;99314.92;2248798;79;21005;-81
2022/05/06 00:09:24;;;;;;;13.62;11.50;;;;;;;13.31;70.21;99316.02;2226717;79;21315;-82
2022/05/06 00:12:25;;;;;;;28.00;14.43;;;;;;;13.05;69.89;99317.06;2248673;79;21042;-82
2022/05/06 00:15:25;;;;;;;39.50;11.18;;;;;;;12.82;70.87;99320.73;2249380;79;20918;-82
2022/05/06 00:18:25;;;;;;;16.52;14.70;;;;;;;12.64;70.87;99320.11;2249533;79;21284;-82
2022/05/06 00:21:26;;;;;;;15.95;14.45;;;;;;;12.38;71.62;99318.50;2249693;79;20911;-82
2022/05/06 00:24:33;;;;;;;15.72;14.23;;;;;;;12.24;72.55;99326.61;2249763;79;20916;-81
2022/05/06 00:27:29;;;;;;;21.95;16.45;;;;;;;12.19;73.12;99330.03;2226524;79;20916;-82
2022/05/06 00:30:33;;;;;;;25.72;14.50;;;;;;;12.11;73.37;99338.63;2249405;79;20911;-82
2022/05/06 00:33:36;;;;;;;32.00;13.03;;;;;;;12.09;74.11;99327.69;2249501;79;20924;-82
2022/05/06 00:36:37;;;;;;;23.20;12.82;;;;;;;11.95;73.62;99331.43;2258004;77;20970;-82
2022/05/06 00:39:37;;;;;;;101.30;14.70;;;;;;;11.86;74.28;99324.76;2263068;79;20919;-82
2022/05/06 00:42:38;;;;;;;59.95;16.85;;;;;;;11.77;74.52;99332.44;2262955;79;20963;-82
2022/05/06 00:45:38;;;;;;;31.82;18.75;;;;;;;11.63;74.50;99331.35;2263111;78;20979;-82
2022/05/06 00:48:41;;;;;;;31.40;16.60;;;;;;;11.51;75.37;99332.05;2263088;79;20947;-82
2022/05/06 00:51:44;;;;;;;30.23;16.45;;;;;;;11.48;75.89;99337.22;2232062;79;20894;-82
2022/05/06 00:57:48;;;;;;;20.02;17.05;;;;;;;11.27;75.88;99329.91;2140410;83;21049;-82
2022/05/06 01:00:48;;;;;;;28.25;18.07;;;;;;;11.28;76.69;99329.48;2140123;83;20998;-82
2022/05/06 01:03:49;;;;;;;72.12;18.15;;;;;;;11.27;76.60;99334.23;2140231;83;21252;-82
2022/05/06 01:06:49;;;;;;;44.67;17.82;;;;;;;11.24;76.67;99332.87;2140328;83;21018;-82
2022/05/06 01:09:50;;;;;;;78.55;18.40;;;;;;;11.15;76.67;99330.98;2139643;83;20964;-81
2022/05/06 01:12:52;;;;;;;40.45;17.30;;;;;;;11.08;77.11;99335.22;2139911;83;21459;-81
2022/05/06 01:15:53;;;;;;;51.53;17.67;;;;;;;11.08;77.50;99336.95;2140108;83;21027;-81
2022/05/06 01:18:53;;;;;;;49.07;17.60;;;;;;;11.09;77.64;99334.36;2140385;83;20912;-81
2022/05/06 01:21:54;;;;;;;61.33;17.45;;;;;;;11.08;77.46;99336.52;2140279;83;20905;-81
2022/05/06 01:24:55;;;;;;;7.05;6.28;;;;;;;11.07;77.46;99345.21;2139895;83;20952;-80
2022/05/06 01:28:02;;;;;;;7.40;6.70;;;;;;;12.64;90.18;99335.83;2139757;83;20967;-80
2022/05/06 01:31:01;;;;;;;26.77;13.70;;;;;;;16.62;80.18;99329.95;2140303;83;20927;-80
2022/05/06 01:34:04;;;;;;;103.07;15.70;;;;;;;18.92;68.06;99322.19;2140007;83;20996;-81
2022/05/06 01:37:04;;;;;;;35.65;15.05;;;;;;;17.90;64.54;99328.66;2140141;83;21045;-80
2022/05/06 01:40:04;;;;;;;35.15;15.58;;;;;;;17.44;63.78;99335.64;2140389;83;20967;-80
2022/05/06 01:43:05;;;;;;;21.27;11.95;;;;;;;17.11;63.77;99338.49;2140197;83;21071;-81
2022/05/06 01:46:06;;;;;;;49.42;13.00;;;;;;;16.96;63.83;99335.95;2140715;83;20975;-80
2022/05/06 01:49:08;;;;;;;35.08;14.70;;;;;;;16.82;63.74;99338.23;2141096;83;20967;-80
2022/05/06 01:52:08;;;;;;;30.65;11.73;;;;;;;16.84;63.72;99343.49;2140623;83;20986;-80
2022/05/06 01:55:08;;;;;;;66.82;13.78;;;;;;;16.82;63.03;99343.94;2228819;79;20895;-80
2022/05/06 01:58:09;;;;;;;20.60;7.03;;;;;;;16.72;63.24;99342.23;2249516;79;20920;-81
2022/05/06 02:01:11;;;;;;;46.08;14.25;;;;;;;16.87;65.43;99348.75;2249383;79;20876;-80
2022/05/06 02:07:31;;;;;;;24.20;14.63;;;;;;;16.80;61.89;99352.30;2249212;78;21371;-80
2022/05/06 02:10:31;;;;;;;35.90;17.05;;;;;;;18.02;63.97;99346.14;2227437;79;20970;-79
2022/05/06 02:13:33;;;;;;;19.42;17.45;;;;;;;18.64;59.73;99340.65;2249532;79;21003;-80
2022/05/06 02:16:32;;;;;;;13.90;10.75;;;;;;;17.54;56.85;99342.16;2249299;79;20911;-84
2022/05/06 02:19:32;;;;;;;14.68;13.28;;;;;;;16.98;59.84;99347.37;2248999;79;20958;-83
2022/05/06 02:22:33;;;;;;;20.20;12.18;;;;;;;16.91;57.55;99350.48;2249595;79;20919;-83
2022/05/06 02:25:33;;;;;;;20.72;14.45;;;;;;;15.64;57.45;99346.42;2249790;79;20908;-83
2022/05/06 02:28:34;;;;;;;16.77;15.28;;;;;;;14.49;58.81;99349.19;2249452;79;20864;-82
2022/05/06 02:34:54;;;;;;;16.95;15.25;;;;;;;12.98;62.80;99351.91;2249018;79;20987;-81
2022/05/06 02:37:54;;;;;;;18.05;16.32;;;;;;;12.47;64.23;99350.89;2261201;77;20939;-82
2022/05/06 02:40:55;;;;;;;17.50;15.68;;;;;;;12.17;65.70;99355.30;2262890;79;20946;-81
2022/05/06 02:43:55;;;;;;;16.23;14.63;;;;;;;11.94;66.69;99349.29;2262662;79;20955;-81
2022/05/06 02:46:55;;;;;;;17.85;16.10;;;;;;;11.65;67.44;99352.75;2262985;79;20899;-80
2022/05/06 02:49:56;;;;;;;23.95;18.23;;;;;;;11.42;68.38;99348.89;2263220;79;20926;-80
2022/05/06 02:52:56;;;;;;;21.52;18.27;;;;;;;11.23;69.09;99347.66;2262903;79;20926;-82
2022/05/06 02:55:56;;;;;;;21.27;19.05;;;;;;;11.09;70.38;99354.38;2262651;79;21313;-83
2022/05/06 02:58:59;;;;;;;21.37;19.07;;;;;;;11.03;71.18;99355.58;2262451;79;21267;-82
2022/05/06 03:02:00;;;;;;;21.40;19.30;;;;;;;10.96;71.65;99355.02;2262629;79;20883;-82
2022/05/06 03:05:00;;;;;;;21.82;19.52;;;;;;;10.83;71.57;99349.56;2262484;79;20919;-83
2022/05/06 03:08:00;;;;;;;17.90;16.10;;;;;;;10.75;72.22;99351.16;2262040;79;20970;-80
2022/05/06 03:11:01;;;;;;;17.15;15.53;;;;;;;11.33;75.57;99350.92;2261445;79;21349;-80
2022/05/06 03:14:03;;;;;;;10.58;9.55;;;;;;;12.31;74.90;99353.31;2261713;79;20963;-82
2022/05/06 03:17:03;;;;;;;19.65;17.70;;;;;;;13.42;75.54;99358.06;2261296;79;21253;-81
2022/05/06 03:20:08;;;;;;;59.30;18.00;;;;;;;13.82;68.40;99349.63;2260852;79;20957;-82
2022/05/06 03:23:04;;;;;;;21.62;18.02;;;;;;;13.12;67.32;99352.95;2261276;79;20919;-83
2022/05/06 03:26:04;;;;;;;45.80;18.23;;;;;;;12.58;68.44;99358.02;2262316;79;20919;-83
2022/05/06 03:29:06;;;;;;;18.10;16.20;;;;;;;12.27;69.15;99370.27;2262423;79;20978;-82
2022/05/06 03:32:05;;;;;;;20.60;16.48;;;;;;;12.01;69.54;99372.06;2261706;79;21001;-82
2022/05/06 03:35:05;;;;;;;18.27;16.52;;;;;;;11.80;69.80;99380.91;2262373;79;20914;-82
2022/05/06 03:38:06;;;;;;;22.25;19.57;;;;;;;11.62;70.33;99384.08;2256053;79;21002;-80
2022/05/06 03:41:07;;;;;;;22.22;19.95;;;;;;;11.50;71.08;99374.73;2223344;79;22794;-81
2022/05/06 03:44:07;;;;;;;27.05;20.60;;;;;;;11.39;71.78;99381.08;2254786;79;20987;-80
2022/05/06 03:47:08;;;;;;;21.02;18.90;;;;;;;11.32;72.37;99384.45;2255213;79;20970;-80
2022/05/06 03:53:27;;;;;;;40.23;20.05;;;;;;;11.21;72.84;99385.95;2254418;79;20974;-81
2022/05/06 03:56:27;;;;;;;149.35;24.18;;;;;;;11.30;73.12;99394.42;2253309;79;20970;-80
2022/05/06 03:59:28;;;;;;;23.80;18.10;;;;;;;11.35;73.29;99396.69;2253236;79;20959;-79
2022/05/06 04:02:28;;;;;;;23.98;18.30;;;;;;;11.34;73.42;99398.84;2254172;79;21022;-81
2022/05/06 04:05:29;;;;;;;41.20;17.67;;;;;;;11.36;73.73;99400.63;2255942;79;21189;-81
2022/05/06 04:08:30;;;;;;;18.60;16.77;;;;;;;11.35;73.73;99406.72;2255800;79;20959;-81
2022/05/06 04:11:29;;;;;;;20.35;17.65;;;;;;;11.36;74.08;99408.48;2255910;79;20989;-80
2022/05/06 04:14:30;;;;;;;20.02;17.37;;;;;;;11.38;74.36;99405.89;2255991;79;20944;-82
2022/05/06 04:17:30;;;;;;;48.75;19.67;;;;;;;11.42;74.73;99407.70;2255628;79;21133;-81
2022/05/06 04:23:34;;;;;;;20.60;17.67;;;;;;;11.50;75.30;99411.33;2254671;79;20923;-80
2022/05/06 04:26:35;;;;;;;30.15;23.32;;;;;;;11.59;75.77;99423.67;2254733;78;21017;-81
2022/05/06 04:29:35;;;;;;;27.13;21.62;;;;;;;11.68;76.10;99427.75;2254357;79;20989;-81
2022/05/06 04:32:35;;;;;;;38.85;22.73;;;;;;;11.79;76.55;99430.15;2252967;79;21045;-81
2022/05/06 04:35:36;;;;;;;25.40;22.82;;;;;;;11.91;76.78;99434.27;2254474;79;21005;-81
2022/05/06 04:38:36;;;;;;;25.80;22.45;;;;;;;12.03;76.92;99439.69;2247214;78;21002;-82
2022/05/06 04:41:37;;;;;;;24.55;22.13;;;;;;;12.11;76.88;99435.88;2247919;79;20993;-82
2022/05/06 04:44:37;;;;;;;25.35;22.40;;;;;;;12.20;77.27;99433.86;2247651;79;20987;-82
2022/05/06 04:47:37;;;;;;;28.45;21.30;;;;;;;12.28;77.33;99433.11;2246959;79;20935;-81
2022/05/06 04:50:38;;;;;;;25.95;22.73;;;;;;;12.41;77.46;99427.19;2245693;79;20978;-82
2022/05/06 04:53:38;;;;;;;27.20;22.85;;;;;;;12.50;76.93;99428.17;2245285;79;20955;-78
2022/05/06 04:56:39;;;;;;;26.68;23.95;;;;;;;12.51;77.21;99433.43;2245942;79;20955;-82
2022/05/06 04:59:40;;;;;;;25.88;21.73;;;;;;;12.53;77.30;99433.02;2246628;79;20979;-82
2022/05/06 05:02:40;;;;;;;25.25;22.20;;;;;;;12.56;77.36;99432.19;2246189;79;20974;-82
2022/05/06 05:05:40;;;;;;;28.92;23.90;;;;;;;12.64;77.39;99435.35;2247261;79;21021;-81
2022/05/06 05:08:40;;;;;;;29.27;23.25;;;;;;;12.69;77.19;99429.74;2246044;79;20993;-81
2022/05/06 05:11:41;;;;;;;24.55;22.07;;;;;;;12.83;77.06;99427.72;2246150;79;21071;-82
2022/05/06 05:14:41;;;;;;;24.30;21.82;;;;;;;13.05;76.93;99431.07;2247282;79;21354;-80
2022/05/06 05:17:45;;;;;;;25.12;22.45;;;;;;;13.16;76.79;99438.63;2247376;79;20959;-80
2022/05/06 05:20:45;;;;;;;32.10;26.53;;;;;;;13.32;76.86;99439.27;2247821;79;20963;-81
2022/05/06 05:23:46;;;;;;;39.27;31.90;;;;;;;13.42;77.02;99438.05;2246916;78;21037;-82
2022/05/06 05:26:46;;;;;;;33.35;28.23;;;;;;;13.53;77.26;99441.65;2246070;79;20935;-80
2022/05/06 05:29:49;;;;;;;34.80;28.10;;;;;;;13.59;77.26;99443.02;2246360;79;21022;-81
2022/05/06 05:32:49;;;;;;;42.05;34.13;;;;;;;13.69;77.50;99444.42;2247255;79;20970;-81
2022/05/06 05:35:50;;;;;;;43.75;30.88;;;;;;;13.84;77.72;99458.11;2247466;79;20999;-80
2022/05/06 05:38:50;;;;;;;38.85;28.52;;;;;;;13.94;77.76;99461.72;2253628;78;21033;-80
2022/05/06 05:41:51;;;;;;;33.90;25.88;;;;;;;14.00;77.49;99465.27;2253312;79;21026;-79
2022/05/06 05:48:22;;;;;;;42.23;29.37;;;;;;;13.98;77.04;99464.38;2254666;79;20955;-80
2022/05/06 05:51:22;;;;;;;32.83;27.15;;;;;;;14.05;77.44;99468.37;2253286;79;20994;-80
2022/05/06 05:54:23;;;;;;;36.10;26.52;;;;;;;14.15;77.19;99466.26;2253381;79;21248;-82
2022/05/06 05:57:23;;;;;;;28.35;25.32;;;;;;;14.29;76.96;99473.80;2253645;79;20939;-81
2022/05/06 06:00:23;;;;;;;156.40;33.88;;;;;;;14.36;76.60;99466.41;2253776;79;21006;-80
2022/05/06 06:03:24;;;;;;;44.20;34.48;;;;;;;14.46;76.63;99469.56;2253725;79;20924;-79
2022/05/06 06:06:24;;;;;;;45.43;35.10;;;;;;;14.55;76.13;99473.56;2252902;79;21010;-81
2022/05/06 06:09:27;;;;;;;39.88;29.87;;;;;;;14.66;76.16;99473.19;2253673;79;20983;-80
2022/05/06 06:12:25;;;;;;;42.93;35.92;;;;;;;14.85;75.67;99475.94;2254277;79;21334;-81
2022/05/06 06:15:25;;;;;;;35.20;26.75;;;;;;;14.97;75.09;99478.62;2254229;79;21066;-81
2022/05/06 06:18:28;;;;;;;32.40;27.45;;;;;;;15.01;74.66;99477.77;2253161;79;20943;-82
2022/05/06 06:21:29;;;;;;;33.75;28.57;;;;;;;15.12;74.51;99483.06;2253285;79;20967;-81
2022/05/06 06:24:30;;;;;;;36.48;29.35;;;;;;;15.21;74.13;99474.77;2253872;79;20982;-81
2022/05/06 06:27:31;;;;;;;36.75;30.52;;;;;;;15.29;73.78;99478.30;2253480;79;20927;-81
2022/05/06 06:30:30;;;;;;;37.33;30.02;;;;;;;15.21;73.60;99478.71;2253533;79;20970;-81
2022/05/06 06:33:32;;;;;;;34.20;29.95;;;;;;;15.16;73.87;99479.57;2253554;79;20982;-81
2022/05/06 06:36:31;;;;;;;35.05;31.05;;;;;;;15.28;74.15;99483.12;2253450;78;22375;-80
2022/05/06 06:39:31;;;;;;;35.92;30.75;;;;;;;15.30;74.22;99487.95;2247215;79;21007;-81
2022/05/06 06:42:32;;;;;;;32.80;28.05;;;;;;;15.33;73.92;99488.83;2247733;79;20924;-81
2022/05/06 06:45:32;;;;;;;35.50;29.75;;;;;;;15.28;73.93;99486.19;2247255;79;21960;-82
2022/05/06 06:48:33;;;;;;;34.45;30.65;;;;;;;15.27;73.83;99489.69;2247464;79;20967;-81
2022/05/06 06:51:33;;;;;;;33.80;30.20;;;;;;;15.25;74.03;99483.11;2248308;79;21006;-80
2022/05/06 06:54:33;;;;;;;32.63;29.12;;;;;;;15.25;74.39;99481.80;2247880;79;20971;-81
2022/05/06 06:57:34;;;;;;;33.18;29.75;;;;;;;15.26;74.17;99477.41;2246759;79;21338;-81
2022/05/06 07:00:34;;;;;;;33.05;29.55;;;;;;;15.42;74.11;99482.28;2247007;79;20948;-81
2022/05/06 07:03:35;;;;;;;35.75;29.40;;;;;;;15.56;73.61;99480.55;2246911;79;20884;-80
2022/05/06 07:13:13;;;;;;;41.02;27.40;;;;;;;15.99;72.58;99479.34;2247240;78;21320;-80
2022/05/06 07:16:15;;;;;;;34.15;27.77;;;;;;;16.17;71.95;99479.34;2211921;80;20995;-80
2022/05/06 07:19:15;;;;;;;31.85;28.60;;;;;;;16.39;70.83;99481.08;2240330;79;21011;-80
2022/05/06 07:22:16;;;;;;;30.82;27.67;;;;;;;16.38;70.64;99478.00;2245744;79;20974;-80
2022/05/06 07:25:16;;;;;;;32.67;28.50;;;;;;;16.58;71.09;99484.59;2246069;79;21030;-81
2022/05/06 07:28:18;;;;;;;29.67;26.57;;;;;;;16.70;70.57;99485.91;2246744;79;22125;-80
2022/05/06 07:31:17;;;;;;;31.27;27.87;;;;;;;16.63;69.65;99490.72;2246926;79;20951;-80
2022/05/06 07:34:17;;;;;;;30.17;25.12;;;;;;;16.61;69.31;99491.61;2247086;79;20998;-81
2022/05/06 07:37:18;;;;;;;32.67;26.90;;;;;;;16.65;68.76;99492.04;2247728;77;20920;-82
2022/05/06 07:40:18;;;;;;;29.35;26.20;;;;;;;16.69;68.53;99489.87;2247883;79;21022;-82
2022/05/06 07:43:21;;;;;;;30.10;26.87;;;;;;;16.58;69.04;99492.49;2247770;79;20994;-82
2022/05/06 07:46:25;;;;;;;27.60;24.67;;;;;;;16.68;69.29;99490.75;2248368;78;21050;-81
2022/05/06 07:49:24;;;;;;;28.52;24.92;;;;;;;16.77;69.21;99482.81;2248015;79;21378;-80
2022/05/06 07:52:24;;;;;;;28.30;25.27;;;;;;;16.91;68.77;99494.19;2246654;79;20915;-78
2022/05/06 07:55:24;;;;;;;28.47;25.55;;;;;;;16.85;68.32;99492.89;2246504;79;20911;-80
2022/05/06 07:58:25;;;;;;;27.17;24.30;;;;;;;16.83;68.35;99495.98;2248224;79;20908;-79
2022/05/06 08:04:48;;;;;;;35.23;24.95;;;;;;;16.81;67.93;99508.28;2247830;78;20951;-80
2022/05/06 08:07:44;;;;;;;26.82;24.02;;;;;;;16.77;67.82;99509.17;2246969;79;20974;-80
2022/05/06 08:10:45;;;;;;;27.35;24.82;;;;;;;16.88;67.98;99511.34;2248072;79;20975;-80
2022/05/06 08:13:45;;;;;;;35.52;26.10;;;;;;;17.04;67.59;99511.73;2246630;79;20990;-80
2022/05/06 08:16:46;;;;;;;27.07;24.27;;;;;;;17.22;67.14;99516.05;2248058;79;20959;-80
2022/05/06 08:19:46;;;;;;;27.80;25.00;;;;;;;17.31;66.62;99516.02;2246847;79;20990;-80
2022/05/06 08:22:46;;;;;;;27.90;24.92;;;;;;;17.26;66.50;99518.23;2246166;79;20993;-78
2022/05/06 08:25:47;;;;;;;26.93;24.30;;;;;;;17.42;66.89;99514.67;2246474;79;20999;-80
2022/05/06 08:28:47;;;;;;;29.85;24.98;;;;;;;17.61;66.37;99522.92;2246809;79;21382;-81
2022/05/06 08:31:51;;;;;;;25.80;23.30;;;;;;;17.85;66.12;99517.09;2247127;79;20991;-81
2022/05/06 08:34:50;;;;;;;27.05;24.07;;;;;;;18.05;65.08;99516.05;2224477;79;20991;-81
2022/05/06 08:37:50;;;;;;;25.75;23.20;;;;;;;18.39;65.25;99524.61;2247001;77;21093;-79
2022/05/06 08:40:51;;;;;;;25.97;23.32;;;;;;;18.66;64.43;99522.63;2246917;79;20908;-80
2022/05/06 08:43:51;;;;;;;26.12;23.42;;;;;;;18.92;62.89;99519.27;2245714;79;21034;-79
2022/05/06 08:53:31;;;;;;;26.57;22.98;;;;;;;18.83;62.13;99529.95;2246571;79;20991;-79
2022/05/06 08:56:31;;;;;;;27.80;22.77;;;;;;;19.16;61.87;99523.88;2246369;79;20974;-80
2022/05/06 08:59:31;;;;;;;23.25;21.00;;;;;;;19.23;61.47;99529.08;2246289;79;20983;-79
2022/05/06 09:02:32;;;;;;;24.43;22.02;;;;;;;19.27;60.84;99523.30;2244215;79;20950;-80
2022/05/06 09:05:32;;;;;;;104.17;25.12;;;;;;;19.18;59.57;99517.67;2245579;79;20952;-78
2022/05/06 09:08:33;;;;;;;27.30;23.60;;;;;;;19.24;60.31;99531.27;2243888;79;21307;-79
2022/05/06 09:18:11;;;;;;;23.75;20.23;;;;;;;19.89;59.00;99521.14;2245486;78;20985;-79
2022/05/06 09:21:13;;;;;;;20.72;18.67;;;;;;;19.89;57.91;99522.91;2243852;79;20954;-79
2022/05/06 09:24:12;;;;;;;55.58;19.40;;;;;;;20.11;57.74;99526.14;2242827;79;20938;-79
2022/05/06 09:27:12;;;;;;;20.30;17.82;;;;;;;20.28;56.98;99517.46;2244050;79;20931;-80
2022/05/06 09:30:13;;;;;;;20.72;18.52;;;;;;;20.44;56.75;99518.11;2245355;79;20958;-79
2022/05/06 09:33:14;;;;;;;22.37;18.67;;;;;;;20.50;55.65;99517.55;2243678;79;21233;-80
2022/05/06 09:36:13;;;;;;;21.30;19.05;;;;;;;20.62;55.54;99529.27;2244343;79;20939;-78
2022/05/06 09:39:14;;;;;;;20.70;18.70;;;;;;;20.67;55.55;99520.77;2245102;77;21062;-79
2022/05/06 09:42:14;;;;;;;17.73;16.10;;;;;;;20.77;55.00;99521.48;2245424;79;21415;-81
2022/05/06 09:45:15;;;;;;;17.07;15.48;;;;;;;21.06;54.65;99518.75;2246114;79;22006;-80
2022/05/06 09:48:15;;;;;;;18.45;16.70;;;;;;;21.08;52.99;99519.14;2246896;79;20935;-81
2022/05/06 09:51:15;;;;;;;16.40;14.70;;;;;;;20.96;53.10;99522.03;2247201;79;20970;-79
2022/05/06 09:54:16;;;;;;;15.53;14.15;;;;;;;21.06;52.83;99514.77;2245458;79;21026;-80
2022/05/06 09:57:18;;;;;;;16.32;14.07;;;;;;;21.12;52.79;99521.28;2244560;79;20931;-79
2022/05/06 10:00:17;;;;;;;15.45;13.58;;;;;;;21.19;52.11;99518.92;2246417;79;21032;-77
2022/05/06 10:03:17;;;;;;;16.45;15.00;;;;;;;21.27;52.77;99508.59;2245895;79;21042;-79
2022/05/06 10:06:17;;;;;;;18.95;15.78;;;;;;;21.31;52.10;99517.38;2245375;79;20958;-79
2022/05/06 10:09:18;;;;;;;15.60;14.10;;;;;;;21.27;52.72;99522.33;2245943;79;20954;-80
2022/05/06 10:12:18;;;;;;;16.35;14.78;;;;;;;21.19;51.07;99523.78;2246198;79;21406;-81
2022/05/06 10:15:19;;;;;;;20.10;15.30;;;;;;;20.99;51.66;99527.28;2245646;79;21038;-80
2022/05/06 10:18:19;;;;;;;14.65;13.35;;;;;;;21.06;52.57;99530.23;2246808;79;20923;-79
2022/05/06 10:21:21;;;;;;;16.65;15.25;;;;;;;21.32;51.04;99529.75;2245936;79;20951;-79
2022/05/06 10:24:20;;;;;;;15.45;14.18;;;;;;;21.56;51.21;99528.34;2245619;79;21017;-80
2022/05/06 10:27:20;;;;;;;17.12;15.35;;;;;;;21.62;49.81;99531.74;2247488;79;20975;-81
2022/05/06 10:33:40;;;;;;;16.12;14.53;;;;;;;22.08;50.25;99527.22;2247612;78;20939;-79
2022/05/06 10:36:43;;;;;;;14.93;13.62;;;;;;;22.10;50.41;99524.07;2245927;79;20994;-80
2022/05/06 10:39:43;;;;;;;16.12;14.58;;;;;;;22.04;50.23;99518.91;2257780;77;20924;-78
2022/05/06 10:42:44;;;;;;;15.80;14.50;;;;;;;21.99;50.49;99514.12;2259819;79;21326;-80
2022/05/06 10:45:44;;;;;;;16.05;14.55;;;;;;;22.23;50.17;99517.55;2259101;79;21045;-81
2022/05/06 10:48:46;;;;;;;16.15;14.68;;;;;;;21.80;49.80;99517.66;2259866;79;21267;-78
2022/05/06 10:51:45;;;;;;;15.65;14.05;;;;;;;21.43;50.76;99521.09;2259710;79;21367;-79
2022/05/06 10:54:48;;;;;;;16.42;14.20;;;;;;;21.17;50.97;99520.73;2260006;79;20911;-80
2022/05/06 10:57:49;;;;;;;16.65;13.65;;;;;;;20.90;52.19;99515.52;2259555;79;20919;-79
2022/05/06 11:00:49;;;;;;;14.80;13.30;;;;;;;20.76;51.44;99519.73;2259915;78;20990;-78
2022/05/06 11:03:50;;;;;;;14.00;12.80;;;;;;;20.63;51.22;99513.77;2258980;79;20958;-78
2022/05/06 11:06:50;;;;;;;15.23;13.78;;;;;;;20.60;50.86;99516.94;2258761;79;21005;-79
2022/05/06 11:09:54;;;;;;;14.38;12.88;;;;;;;20.67;51.02;99521.22;2258992;79;20916;-79
2022/05/06 11:12:54;;;;;;;11.97;10.98;;;;;;;20.92;51.59;99518.56;2259073;79;21001;-78
2022/05/06 11:15:56;;;;;;;11.85;10.58;;;;;;;21.24;49.29;99509.98;2260651;79;21001;-78
2022/05/06 11:19:00;;;;;;;12.00;10.82;;;;;;;21.36;48.87;99511.52;2260279;79;20911;-78
2022/05/06 11:21:55;;;;;;;10.00;9.00;;;;;;;21.60;47.51;99504.34;2260323;79;21440;-79
2022/05/06 11:24:56;;;;;;;16.05;10.00;;;;;;;21.87;47.43;99501.98;2260277;79;20944;-81
2022/05/06 11:27:59;;;;;;;10.88;9.20;;;;;;;22.12;46.74;99501.85;2260926;79;20985;-79
2022/05/06 11:31:00;;;;;;;11.40;10.15;;;;;;;22.32;43.97;99504.02;2260506;79;20965;-78
2022/05/06 11:34:00;;;;;;;11.18;9.05;;;;;;;22.28;44.06;99494.82;2260463;78;20991;-80
2022/05/06 11:37:02;;;;;;;12.45;9.60;;;;;;;22.37;44.36;99486.16;2229381;79;20990;-77
2022/05/06 11:43:22;;;;;;;12.50;10.15;;;;;;;21.88;43.77;99491.78;2259441;78;20931;-80
2022/05/06 11:49:41;;;;;;;9.80;8.83;;;;;;;21.85;44.27;99491.84;2258496;78;21780;-77
2022/05/06 11:52:41;;;;;;;11.83;8.98;;;;;;;21.95;43.99;99492.05;2257334;79;20954;-80
2022/05/06 11:55:42;;;;;;;10.95;9.85;;;;;;;22.08;44.07;99497.52;2259548;79;21006;-81
2022/05/06 11:58:42;;;;;;;11.68;9.75;;;;;;;22.03;42.95;99498.09;2258833;79;20969;-79
2022/05/06 12:01:43;;;;;;;11.60;9.23;;;;;;;21.89;42.95;99492.20;2259287;79;20923;-80
2022/05/06 12:04:43;;;;;;;9.58;8.53;;;;;;;21.93;42.99;99497.41;2258745;79;21038;-79
2022/05/06 12:07:44;;;;;;;10.35;9.15;;;;;;;22.02;42.54;99490.99;2258856;79;20978;-81
2022/05/06 12:10:44;;;;;;;8.83;7.92;;;;;;;21.92;40.72;99485.48;2258247;79;20962;-81
2022/05/06 12:13:44;;;;;;;9.93;8.90;;;;;;;21.70;40.69;99483.78;2258774;79;21425;-80
2022/05/06 12:16:45;;;;;;;11.18;10.08;;;;;;;21.57;40.61;99493.78;2258279;79;20990;-77
2022/05/06 12:19:45;;;;;;;9.75;8.43;;;;;;;21.37;41.16;99489.36;2257196;79;20954;-79
2022/05/06 12:22:46;;;;;;;11.90;9.65;;;;;;;21.32;41.29;99487.71;2256612;79;21949;-78
2022/05/06 12:25:46;;;;;;;13.78;10.63;;;;;;;21.22;41.41;99488.33;2257923;79;21019;-79
2022/05/06 12:28:46;;;;;;;11.90;10.80;;;;;;;21.21;42.99;99485.25;2257976;79;20978;-78
2022/05/06 12:31:48;;;;;;;12.53;11.10;;;;;;;21.48;43.11;99484.69;2259066;79;21377;-80
2022/05/06 12:34:47;;;;;;;10.10;9.20;;;;;;;21.52;42.16;99486.37;2257186;79;21247;-80
2022/05/06 12:37:47;;;;;;;10.43;9.33;;;;;;;21.59;42.19;99478.68;2259258;77;20990;-78
2022/05/06 12:40:48;;;;;;;10.63;9.63;;;;;;;21.76;42.24;99473.01;2237884;79;20963;-81
2022/05/06 12:43:48;;;;;;;12.05;10.13;;;;;;;21.82;42.66;99467.55;2238356;79;20924;-79
2022/05/06 12:46:49;;;;;;;11.50;9.68;;;;;;;21.90;41.70;99467.37;2238283;79;21001;-80
2022/05/06 12:49:52;;;;;;;10.98;9.25;;;;;;;21.84;41.38;99473.70;2238418;79;20935;-80
2022/05/06 12:52:52;;;;;;;8.98;8.20;;;;;;;21.89;40.39;99466.95;2239607;79;21025;-80
2022/05/06 12:55:53;;;;;;;10.82;9.15;;;;;;;21.90;41.27;99459.39;2238541;79;20943;-81
2022/05/06 12:58:53;;;;;;;11.25;10.13;;;;;;;22.00;41.09;99462.70;2238406;79;20989;-80
2022/05/06 13:01:54;;;;;;;10.08;9.05;;;;;;;22.06;41.86;99452.82;2238317;79;20939;-82
2022/05/06 13:04:56;;;;;;;32.15;12.40;;;;;;;22.19;41.54;99448.94;2238511;79;20944;-81
2022/05/06 13:07:55;;;;;;;13.22;11.05;;;;;;;21.90;42.80;99451.42;2238346;79;21892;-80
2022/05/06 13:10:55;;;;;;;15.53;10.90;;;;;;;21.80;43.06;99453.88;2238862;79;20944;-82
2022/05/06 13:13:55;;;;;;;13.18;10.18;;;;;;;21.60;42.71;99451.20;2239334;79;21010;-81
2022/05/06 13:16:56;;;;;;;12.07;9.78;;;;;;;21.55;43.05;99445.13;2238693;79;21233;-80
2022/05/06 13:19:57;;;;;;;14.65;11.25;;;;;;;21.53;43.03;99442.09;2239464;79;21027;-81
2022/05/06 13:22:57;;;;;;;12.37;11.15;;;;;;;21.42;42.27;99448.09;2238720;79;20959;-79
2022/05/06 13:25:57;;;;;;;12.65;11.25;;;;;;;21.37;42.54;99448.66;2239193;79;20939;-79
2022/05/06 13:28:57;;;;;;;13.18;10.35;;;;;;;21.41;43.28;99450.33;2238484;79;21386;-81
2022/05/06 13:31:58;;;;;;;14.35;12.70;;;;;;;21.51;43.63;99446.11;2238906;79;20975;-81
2022/05/06 13:34:58;;;;;;;15.93;10.45;;;;;;;21.63;42.95;99438.30;2238685;79;21011;-80
2022/05/06 13:37:59;;;;;;;12.78;11.18;;;;;;;21.61;42.21;99441.45;2239654;79;20915;-80
2022/05/06 13:40:59;;;;;;;11.18;10.08;;;;;;;21.61;42.79;99441.00;2254124;79;21291;-79
2022/05/06 13:44:00;;;;;;;11.05;7.95;;;;;;;21.82;42.00;99439.65;2254457;79;20959;-80
2022/05/06 13:47:00;;;;;;;9.50;8.58;;;;;;;21.89;40.21;99443.03;2253811;79;20985;-81
2022/05/06 13:50:00;;;;;;;12.53;8.95;;;;;;;21.68;40.52;99448.41;2254068;79;21302;-78
2022/05/06 13:53:01;;;;;;;10.23;9.23;;;;;;;21.40;41.23;99446.80;2252926;79;21074;-79
2022/05/06 13:59:21;;;;;;;12.07;9.63;;;;;;;21.32;41.31;99445.23;2251290;79;21061;-78
2022/05/06 14:02:20;;;;;;;12.35;9.13;;;;;;;21.39;42.29;99442.85;2250671;79;21373;-79
2022/05/06 14:05:21;;;;;;;10.90;8.68;;;;;;;21.23;42.11;99448.95;2250399;79;20981;-78
2022/05/06 14:08:27;;;;;;;13.00;8.70;;;;;;;21.04;42.20;99448.89;2249538;79;21364;-78
2022/05/06 14:11:28;;;;;;;12.25;10.08;;;;;;;21.04;42.69;99445.79;2250915;79;20974;-79
2022/05/06 14:14:28;;;;;;;14.13;9.75;;;;;;;21.01;42.93;99434.36;2252839;79;20994;-78
2022/05/06 14:17:28;;;;;;;11.30;8.40;;;;;;;21.05;43.17;99436.92;2253356;79;20978;-78
2022/05/06 14:20:28;;;;;;;12.37;10.45;;;;;;;21.03;43.40;99434.75;2254068;79;20962;-80
2022/05/06 14:23:29;;;;;;;13.15;9.38;;;;;;;20.89;43.27;99439.02;2254659;79;21306;-78
2022/05/06 14:26:30;;;;;;;10.18;8.78;;;;;;;20.70;43.86;99434.95;2253406;79;20943;-78
2022/05/06 14:29:30;;;;;;;14.60;8.38;;;;;;;20.66;44.14;99429.29;2251128;79;20978;-78
2022/05/06 14:32:31;;;;;;;9.40;7.70;;;;;;;20.70;43.30;99429.65;2250798;79;20915;-79
2022/05/06 14:35:33;;;;;;;10.65;8.05;;;;;;;20.64;42.87;99435.08;2251266;79;21054;-78
2022/05/06 14:38:31;;;;;;;11.95;7.72;;;;;;;20.49;43.63;99430.94;2251411;79;20998;-79
2022/05/06 14:41:32;;;;;;;11.12;8.38;;;;;;;20.44;43.60;99435.45;2245794;79;21347;-78
2022/05/06 14:44:32;;;;;;;15.40;10.43;;;;;;;20.49;43.67;99432.27;2246695;79;21003;-79
2022/05/06 14:47:32;;;;;;;11.70;9.10;;;;;;;20.50;43.89;99429.16;2248262;79;20999;-79